createdAt,value
2023-04-01T00:01:25.659Z,98.20
2023-04-01T00:05:08.138Z,98.20
2023-04-01T00:08:49.932Z,98.20
2023-04-01T00:12:31.663Z,98.20
2023-04-01T00:16:21.775Z,98.10
2023-04-01T00:20:05.773Z,98.20
2023-04-01T00:23:47.429Z,98.10
2023-04-01T00:27:29.141Z,98.00
2023-04-01T00:31:15.491Z,98.20
2023-04-01T00:34:59.911Z,98.20
2023-04-01T00:38:43.474Z,98.20
2023-04-01T00:42:26.751Z,98.10
2023-04-01T00:46:08.425Z,98.10
2023-04-01T00:49:53.365Z,98.00
2023-04-01T00:53:39.301Z,98.00
2023-04-01T00:57:26.621Z,98.10
2023-04-01T01:01:09.605Z,98.10
2023-04-01T01:04:51.521Z,98.10
2023-04-01T01:08:51.822Z,98.20
2023-04-01T01:13:02.657Z,98.20
2023-04-01T01:16:49.414Z,98.10
2023-04-01T01:21:09.730Z,98.20
2023-04-01T01:25:06.928Z,98.10
2023-04-01T01:29:16.267Z,98.10
2023-04-01T01:33:26.381Z,98.20
2023-04-01T01:37:15.862Z,98.10
2023-04-01T01:40:59.986Z,98.20
2023-04-01T01:44:44.522Z,98.20
2023-04-01T01:48:28.708Z,98.30
2023-04-01T01:52:11.108Z,98.20
2023-04-01T01:55:53.086Z,98.50
2023-04-01T01:59:39.083Z,98.10
2023-04-01T02:03:23.997Z,98.10
2023-04-01T02:07:12.053Z,98.10
2023-04-01T02:11:01.964Z,98.10
2023-04-01T02:14:58.528Z,98.10
2023-04-01T02:18:42.301Z,98.10
2023-04-01T02:22:30.346Z,98.10
2023-04-01T02:26:13.828Z,98.10
2023-04-01T02:29:55.844Z,98.20
2023-04-01T02:33:39.900Z,98.20
2023-04-01T02:37:22.462Z,98.20
2023-04-01T02:41:06.124Z,98.20
2023-04-01T02:44:48.004Z,98.20
2023-04-01T02:48:30.686Z,98.20
2023-04-01T02:52:12.400Z,98.20
2023-04-01T02:55:54.168Z,98.20
2023-04-01T02:59:36.070Z,98.20
2023-04-01T03:03:17.902Z,98.20
2023-04-01T03:06:59.623Z,98.20
2023-04-01T03:10:41.520Z,98.20
2023-04-01T03:14:23.323Z,98.20
2023-04-01T03:18:05.253Z,98.20
2023-04-01T03:21:46.995Z,98.20
2023-04-01T03:25:29.702Z,98.20
2023-04-01T03:29:11.399Z,98.10
2023-04-01T03:32:53.296Z,98.10
2023-04-01T03:36:35.288Z,98.20
2023-04-01T03:40:17.165Z,98.20
2023-04-01T03:43:58.955Z,98.20
2023-04-01T03:47:41.268Z,98.20
2023-04-01T03:51:23.035Z,98.20
2023-04-01T03:55:05.168Z,98.20
2023-04-01T03:58:46.933Z,98.20
2023-04-01T04:02:28.729Z,98.10
2023-04-01T04:06:14.822Z,98.40
2023-04-01T04:09:56.628Z,98.10
2023-04-01T04:13:38.552Z,98.20
2023-04-01T04:17:20.381Z,98.20
2023-04-01T04:21:02.269Z,98.20
2023-04-01T04:24:44.038Z,98.20
2023-04-01T04:28:27.319Z,98.10
2023-04-01T04:32:09.062Z,98.10
2023-04-01T04:35:51.105Z,98.10
2023-04-01T04:39:32.925Z,98.10
2023-04-01T04:43:16.547Z,98.10
2023-04-01T04:46:58.681Z,98.10
2023-04-01T04:50:41.576Z,98.10
2023-04-01T04:54:23.344Z,98.20
2023-04-01T04:58:08.843Z,98.10
2023-04-01T05:01:51.576Z,98.20
2023-04-01T05:05:38.309Z,98.10
2023-04-01T05:09:21.084Z,98.20
2023-04-01T05:13:03.875Z,98.20
2023-04-01T05:16:46.895Z,98.20
2023-04-01T05:20:34.430Z,98.20
2023-04-01T05:24:22.661Z,98.20
2023-04-01T05:28:06.018Z,98.20
2023-04-01T05:31:49.181Z,98.30
2023-04-01T05:35:31.782Z,98.30
2023-04-01T05:39:13.745Z,98.20
2023-04-01T05:42:59.101Z,98.40
2023-04-01T05:46:43.101Z,98.30
2023-04-01T05:50:25.577Z,98.40
2023-04-01T05:54:07.564Z,98.40
2023-04-01T05:57:51.526Z,98.40
2023-04-01T06:01:34.357Z,98.40
2023-04-01T06:05:20.875Z,98.40
2023-04-01T06:09:19.767Z,98.40
2023-04-01T06:13:13.240Z,98.40
2023-04-01T06:17:02.787Z,98.40
2023-04-01T06:20:49.978Z,98.40
2023-04-01T06:25:04.837Z,98.30
2023-04-01T06:29:13.280Z,98.30
2023-04-01T06:32:57.824Z,98.40
2023-04-01T06:37:07.803Z,98.50
2023-04-01T06:41:06.500Z,98.30
2023-04-01T06:45:06.295Z,98.50
2023-04-01T06:49:18.860Z,98.50
2023-04-01T06:53:36.365Z,98.40
2023-04-01T06:57:34.853Z,98.60
2023-04-01T07:01:27.537Z,98.50
2023-04-01T07:05:12.777Z,98.50
2023-04-01T07:08:56.700Z,98.90
2023-04-01T07:12:45.249Z,98.50
2023-04-01T07:16:40.129Z,98.60
2023-04-01T07:20:30.818Z,98.60
2023-04-01T07:24:24.883Z,98.50
2023-04-01T07:28:14.148Z,98.50
2023-04-01T07:32:14.757Z,98.40
2023-04-01T07:36:23.014Z,98.20
2023-04-01T07:40:17.452Z,98.40
2023-04-01T07:44:26.116Z,98.40
2023-04-01T07:48:40.234Z,98.60
2023-04-01T07:52:43.658Z,98.40
2023-04-01T07:56:37.988Z,98.50
2023-04-01T08:00:34.123Z,98.70
2023-04-01T08:04:25.520Z,98.50
2023-04-01T08:08:41.294Z,98.50
2023-04-01T08:12:37.397Z,98.40
2023-04-01T08:16:56.847Z,98.60
2023-04-01T08:21:01.796Z,98.40
2023-04-01T08:24:48.035Z,98.40
2023-04-01T08:28:52.936Z,98.70
2023-04-01T08:32:43.337Z,98.40
2023-04-01T08:36:36.051Z,98.80
2023-04-01T08:40:36.225Z,98.80
2023-04-01T08:44:44.282Z,98.80
2023-04-01T08:48:36.661Z,99.00
2023-04-01T08:52:30.298Z,99.50
2023-04-01T08:56:42.799Z,99.10
2023-04-01T09:00:34.941Z,99.10
2023-04-01T09:04:28.627Z,99.90
2023-04-01T09:08:32.535Z,99.90
2023-04-01T09:12:34.725Z,99.30
2023-04-01T09:16:36.585Z,97.90
2023-04-01T09:20:40.241Z,99.30
2023-04-01T09:24:21.867Z,98.40
2023-04-01T09:28:44.082Z,97.90
2023-04-01T09:32:52.846Z,97.50
2023-04-01T09:36:55.874Z,97.50
2023-04-01T09:41:03.709Z,97.60
2023-04-01T09:45:06.618Z,97.60
2023-04-01T09:49:10.369Z,97.40
2023-04-01T09:53:01.895Z,97.60
2023-04-01T09:56:56.093Z,98.40
2023-04-01T10:01:27.098Z,98.40
2023-04-01T10:05:27.765Z,98.20
2023-04-01T10:09:28.574Z,98.70
2023-04-01T10:13:50.646Z,98.40
2023-04-01T10:17:47.337Z,98.50
2023-04-01T10:21:46.700Z,99.00
2023-04-01T10:26:05.722Z,99.10
2023-04-01T10:30:18.890Z,98.60
2023-04-01T10:34:00.669Z,98.30
2023-04-01T10:37:54.419Z,98.80
2023-04-01T10:41:54.627Z,98.40
2023-04-01T10:46:01.591Z,98.30
2023-04-01T10:50:07.159Z,98.50
2023-04-01T10:54:06.768Z,98.80
2023-04-01T10:57:59.893Z,98.40
2023-04-01T11:02:12.249Z,99.10
2023-04-01T11:06:12.975Z,98.10
2023-04-01T11:10:06.703Z,98.30
2023-04-01T11:14:08.249Z,99.40
2023-04-01T11:18:03.611Z,98.50
2023-04-01T11:22:10.652Z,98.60
2023-04-01T11:26:42.999Z,99.40
2023-04-01T11:30:42.908Z,98.10
2023-04-01T11:34:43.250Z,99.40
2023-04-01T11:38:36.083Z,99.50
2023-04-01T11:42:36.019Z,99.10
2023-04-01T11:47:02.704Z,98.10
2023-04-01T11:51:18.770Z,96.90
2023-04-01T11:55:07.787Z,96.90
2023-04-01T11:59:18.030Z,97.20
2023-04-01T12:03:18.442Z,98.10
2023-04-01T12:07:12.499Z,96.90
2023-04-01T12:11:06.137Z,97.30
2023-04-01T12:15:22.801Z,97.80
2023-04-01T12:19:27.463Z,97.50
2023-04-01T12:23:29.936Z,97.80
2023-04-01T12:27:46.723Z,97.60
2023-04-01T12:32:06.092Z,97.60
2023-04-01T12:36:11.206Z,97.60
2023-04-01T12:40:19.149Z,97.60
2023-04-01T12:44:40.883Z,97.60
2023-04-01T12:49:16.501Z,97.80
2023-04-01T12:53:18.145Z,98.10
2023-04-01T12:57:18.288Z,98.30
2023-04-01T13:01:05.993Z,98.50
2023-04-01T13:05:06.547Z,98.70
2023-04-01T13:09:00.496Z,98.50
2023-04-01T13:13:00.805Z,98.70
2023-04-01T13:16:58.884Z,97.40
2023-04-01T13:21:07.063Z,98.10
2023-04-01T13:25:05.453Z,97.70
2023-04-01T13:29:18.190Z,98.00
2023-04-01T13:33:20.895Z,96.60
2023-04-01T13:37:18.028Z,96.60
2023-04-01T13:41:07.284Z,96.60
2023-04-01T13:45:01.785Z,97.20
2023-04-01T13:49:01.417Z,97.80
2023-04-01T13:53:02.755Z,97.70
2023-04-01T13:57:22.775Z,96.10
2023-04-01T14:01:15.635Z,95.80
2023-04-01T14:05:15.932Z,96.50
2023-04-01T14:09:22.170Z,95.70
2023-04-01T14:13:12.733Z,95.90
2023-04-01T14:17:27.745Z,95.70
2023-04-01T14:21:37.230Z,95.10
2023-04-01T14:25:40.547Z,95.50
2023-04-01T14:29:25.367Z,95.60
2023-04-01T14:33:32.890Z,95.90
2023-04-01T14:37:27.440Z,95.40
2023-04-01T14:41:31.465Z,95.80
2023-04-01T14:45:48.412Z,95.70
2023-04-01T14:49:52.062Z,95.40
2023-04-01T14:53:39.898Z,95.10
2023-04-01T14:57:32.531Z,96.20
2023-04-01T15:01:35.690Z,95.10
2023-04-01T15:05:51.450Z,95.80
2023-04-01T15:09:45.269Z,94.30
2023-04-01T15:13:32.741Z,94.20
2023-04-01T15:17:22.120Z,95.60
2023-04-01T15:21:03.961Z,94.50
2023-04-01T15:24:57.523Z,95.70
2023-04-01T15:28:55.052Z,95.40
2023-04-01T15:32:50.140Z,93.60
2023-04-01T15:37:09.931Z,94.20
2023-04-01T15:41:04.897Z,93.10
2023-04-01T15:44:54.726Z,94.00
2023-04-01T15:49:21.043Z,94.80
2023-04-01T15:53:32.786Z,92.40
2023-04-01T15:57:34.509Z,93.50
2023-04-01T16:01:40.331Z,92.80
2023-04-01T16:05:43.908Z,93.40
2023-04-01T16:09:48.692Z,94.60
2023-04-01T16:13:46.498Z,93.20
2023-04-01T16:17:55.830Z,92.80
2023-04-01T16:22:09.204Z,93.50
2023-04-01T16:26:07.581Z,92.90
2023-04-01T16:30:33.938Z,94.30
2023-04-01T16:34:15.805Z,92.30
2023-04-01T16:38:26.248Z,94.70
2023-04-01T16:42:07.935Z,91.80
2023-04-01T16:46:14.655Z,94.60
2023-04-01T16:50:19.315Z,91.90
2023-04-01T16:54:11.655Z,91.80
2023-04-01T16:57:59.207Z,92.70
2023-04-01T17:01:53.669Z,92.60
2023-04-01T17:05:51.817Z,91.90
2023-04-01T17:10:08.935Z,90.00
2023-04-01T17:14:14.162Z,90.00
2023-04-01T17:18:23.369Z,92.30
2023-04-01T17:22:20.842Z,88.50
2023-04-01T17:26:05.533Z,90.60
2023-04-01T17:30:16.213Z,92.60
2023-04-01T17:34:06.738Z,88.90
2023-04-01T17:38:30.922Z,90.30
2023-04-01T17:42:21.749Z,87.90
2023-04-01T17:46:28.940Z,90.60
2023-04-01T17:50:32.161Z,90.70
2023-04-01T17:54:23.335Z,90.80
2023-04-01T17:58:41.705Z,89.00
2023-04-01T18:02:46.714Z,88.40
2023-04-01T18:06:56.687Z,89.50
2023-04-01T18:11:01.349Z,87.60
2023-04-01T18:14:55.347Z,87.20
2023-04-01T18:18:56.277Z,87.80
2023-04-01T18:23:02.586Z,87.20
2023-04-01T18:27:06.229Z,90.20
2023-04-01T18:31:03.238Z,90.40
2023-04-01T18:34:47.748Z,87.10
2023-04-01T18:38:45.790Z,90.10
2023-04-01T18:42:47.622Z,87.10
2023-04-01T18:46:40.650Z,88.50
2023-04-01T18:50:25.487Z,90.60
2023-04-01T18:54:15.763Z,90.70
2023-04-01T18:58:12.814Z,89.10
2023-04-01T19:02:21.038Z,87.40
2023-04-01T19:06:19.845Z,87.80
2023-04-01T19:10:13.994Z,87.80
2023-04-01T19:14:13.256Z,90.30
2023-04-01T19:18:31.765Z,87.50
2023-04-01T19:22:28.688Z,87.00
2023-04-01T19:26:26.561Z,87.70
2023-04-01T19:30:11.400Z,87.50
2023-04-01T19:34:00.278Z,90.10
2023-04-01T19:37:52.003Z,87.60
2023-04-01T19:41:37.943Z,87.90
2023-04-01T19:45:37.080Z,87.80
2023-04-01T19:50:12.972Z,86.10
2023-04-01T19:54:22.106Z,85.40
2023-04-01T19:58:11.754Z,84.40
2023-04-01T20:02:32.383Z,88.90
2023-04-01T20:06:19.935Z,83.10
2023-04-01T20:10:15.902Z,86.80
2023-04-01T20:14:31.126Z,84.70
2023-04-01T20:18:35.824Z,84.40
2023-04-01T20:22:43.225Z,84.20
2023-04-01T20:26:36.503Z,85.70
2023-04-01T20:30:52.400Z,84.40
2023-04-01T20:34:52.306Z,83.20
2023-04-01T20:39:01.574Z,87.40
2023-04-01T20:43:11.362Z,84.20
2023-04-01T20:47:41.087Z,82.90
2023-04-01T20:51:38.772Z,83.60
2023-04-01T20:55:41.094Z,84.30
2023-04-01T21:00:05.956Z,84.00
2023-04-01T21:04:16.654Z,83.30
2023-04-01T21:08:27.114Z,81.50
2023-04-01T21:12:28.519Z,83.30
2023-04-01T21:16:34.631Z,82.60
2023-04-01T21:20:57.956Z,82.90
2023-04-01T21:25:00.840Z,83.20
2023-04-01T21:29:40.828Z,82.60
2023-04-01T21:33:36.250Z,81.90
2023-04-01T21:37:34.494Z,83.80
2023-04-01T21:41:26.268Z,83.80
2023-04-01T21:45:20.296Z,86.50
2023-04-01T21:49:14.007Z,86.50
2023-04-01T21:53:20.145Z,85.30
2023-04-01T21:57:29.875Z,83.90
2023-04-01T22:01:46.656Z,83.00
2023-04-01T22:05:43.229Z,83.80
2023-04-01T22:09:24.898Z,84.30
2023-04-01T22:13:11.063Z,86.70
2023-04-01T22:16:55.521Z,86.70
2023-04-01T22:21:08.859Z,86.60
2023-04-01T22:25:11.232Z,84.50
2023-04-01T22:28:58.733Z,84.90
2023-04-01T22:32:43.362Z,85.90
2023-04-01T22:36:59.176Z,87.40
2023-04-01T22:40:53.154Z,85.30
2023-04-01T22:44:59.806Z,86.60
2023-04-01T22:48:43.723Z,85.80
2023-04-01T22:52:46.204Z,88.10
2023-04-01T22:56:49.572Z,88.30
2023-04-01T23:00:35.018Z,87.90
2023-04-01T23:04:19.795Z,88.20
2023-04-01T23:08:27.063Z,88.30
2023-04-01T23:12:13.871Z,86.80
2023-04-01T23:15:56.703Z,88.10
2023-04-01T23:20:06.794Z,88.50
2023-04-01T23:24:02.129Z,87.60
2023-04-01T23:28:13.453Z,87.80
2023-04-01T23:31:59.512Z,88.70
2023-04-01T23:35:56.794Z,88.60
2023-04-01T23:39:47.711Z,88.90
2023-04-01T23:43:37.260Z,89.00
2023-04-01T23:47:26.806Z,88.80
2023-04-01T23:51:24.552Z,89.10
2023-04-01T23:55:12.322Z,88.70
2023-04-01T23:58:57.745Z,89.40
